Time;durP1;ratioP1;P1;durP2;ratioP2;P2;SDS_P1;SDS_P2;PMS_P1;PMS_P2;Temp;Humidity;BMP_temperature;BMP_pressure;BME280_temperature;BME280_humidity;BME280_pressure;Samples;Min_cycle;Max_cycle;Signal;HPM_P1;HPM_P2
2022/04/10 00:02:49;;;;;;;145.38;71.00;;;;;;;24.91;76.17;97842.91;5017985;28;20056;-66
2022/04/10 00:05:44;;;;;;;140.53;72.60;;;;;;;24.82;72.79;97851.75;5017158;28;20049;-67
2022/04/10 00:08:20;;;;;;;141.90;73.55;;;;;;;24.79;74.67;97852.88;5020580;28;20060;-66
2022/04/10 00:11:10;;;;;;;159.25;72.53;;;;;;;24.72;73.66;97854.50;5037162;28;20046;-66
2022/04/10 00:13:52;;;;;;;134.10;69.30;;;;;;;24.75;77.76;97860.25;5022290;28;20053;-67
2022/04/10 00:16:47;;;;;;;152.70;70.28;;;;;;;24.67;74.80;97854.94;4999667;28;20107;-66
2022/04/10 00:19:23;;;;;;;153.00;71.63;;;;;;;24.63;72.76;97866.78;5025033;28;20049;-66
2022/04/10 00:22:12;;;;;;;139.70;69.70;;;;;;;24.59;75.49;97868.06;5019448;28;20501;-66
2022/04/10 00:25:01;;;;;;;149.77;69.90;;;;;;;24.74;77.71;97861.25;5023796;28;20111;-66
2022/04/10 00:27:43;;;;;;;144.13;68.82;;;;;;;24.92;76.73;97868.28;5024150;28;20049;-66
2022/04/10 00:30:32;;;;;;;149.40;72.53;;;;;;;24.86;75.99;97872.34;5002440;28;20133;-67
2022/04/10 00:33:21;;;;;;;157.07;70.95;;;;;;;24.71;74.07;97874.75;5026897;28;20076;-67
2022/04/10 00:36:02;;;;;;;151.57;71.68;;;;;;;24.62;74.35;97874.81;5022006;28;20111;-66
2022/04/10 00:38:51;;;;;;;144.52;71.05;;;;;;;24.57;77.24;97866.56;5024310;28;20053;-67
2022/04/10 00:41:40;;;;;;;132.57;65.30;;;;;;;24.50;74.82;97876.06;5020577;28;20049;-67
2022/04/10 00:44:22;;;;;;;146.75;69.28;;;;;;;24.49;75.79;97880.50;5022863;28;20060;-67
2022/04/10 00:47:12;;;;;;;139.73;67.25;;;;;;;24.45;75.23;97880.94;5022466;28;20156;-67
2022/04/10 00:50:12;;;;;;;142.68;69.22;;;;;;;24.43;74.07;97886.38;5023878;28;20041;-67
2022/04/10 00:53:01;;;;;;;161.90;69.82;;;;;;;24.42;74.82;97890.81;5027513;28;20068;-67
2022/04/10 00:55:43;;;;;;;130.23;67.32;;;;;;;24.49;78.64;97887.59;5027667;28;20045;-67
2022/04/10 00:58:32;;;;;;;148.25;71.13;;;;;;;24.62;79.76;97893.28;5050515;28;20672;-67
2022/04/10 01:01:14;;;;;;;144.90;66.57;;;;;;;24.56;76.97;97892.09;5051231;28;20388;-67
2022/04/10 01:04:12;;;;;;;138.02;67.88;;;;;;;24.63;77.36;97892.28;5063304;28;20151;-67
2022/04/10 01:06:49;;;;;;;151.50;65.35;;;;;;;24.76;78.28;97884.81;5062506;28;20076;-67
2022/04/10 01:09:41;;;;;;;136.23;65.00;;;;;;;24.75;72.45;97881.34;5033511;28;20059;-67
2022/04/10 01:12:23;;;;;;;140.85;63.47;;;;;;;24.86;75.90;97882.91;5045152;28;20052;-66
2022/04/10 01:15:18;;;;;;;120.47;65.07;;;;;;;24.91;75.70;97878.00;5027445;28;20052;-66
2022/04/10 01:18:02;;;;;;;138.00;65.68;;;;;;;24.78;72.52;97881.03;5042850;28;20432;-67
2022/04/10 01:20:51;;;;;;;127.75;63.78;;;;;;;24.74;72.53;97882.31;5034255;28;20696;-67
2022/04/10 01:23:33;;;;;;;143.63;66.18;;;;;;;24.71;73.26;97889.72;5049253;28;20092;-67
2022/04/10 01:26:23;;;;;;;149.85;66.75;;;;;;;24.68;71.64;97896.13;5058702;28;20059;-67
2022/04/10 01:29:13;;;;;;;148.90;68.80;;;;;;;24.75;73.20;97902.41;5056708;28;20059;-67
2022/04/10 01:32:02;;;;;;;135.55;63.03;;;;;;;24.81;72.15;97905.44;5061976;28;20288;-67
2022/04/10 01:34:46;;;;;;;119.80;59.03;;;;;;;24.83;72.15;97903.44;5061649;28;20040;-66
2022/04/10 01:37:36;;;;;;;121.50;57.38;;;;;;;24.89;72.50;97903.69;5042718;28;20347;-67
2022/04/10 01:40:26;;;;;;;122.10;56.30;;;;;;;25.00;75.57;97905.25;5045680;28;20056;-65
2022/04/10 01:43:15;;;;;;;101.90;53.97;;;;;;;25.06;73.67;97908.06;5047019;28;20048;-65
2022/04/10 01:46:04;;;;;;;100.45;51.85;;;;;;;25.14;72.94;97909.97;5059434;28;20148;-67
2022/04/10 01:48:52;;;;;;;96.82;50.63;;;;;;;25.19;71.15;97915.59;5030227;28;20041;-68
2022/04/10 01:51:41;;;;;;;100.03;49.05;;;;;;;25.35;74.25;97918.31;5029086;28;20049;-67
2022/04/10 01:54:23;;;;;;;106.40;47.90;;;;;;;25.64;76.80;97917.97;5040501;28;20078;-65
2022/04/10 01:57:12;;;;;;;103.60;49.33;;;;;;;25.76;78.70;97921.16;5046340;28;20048;-65
2022/04/10 02:00:02;;;;;;;98.25;49.42;;;;;;;25.85;74.98;97923.66;5050591;28;20040;-66
2022/04/10 02:02:52;;;;;;;101.07;48.28;;;;;;;25.94;78.98;97932.44;5046520;28;20700;-66
2022/04/10 02:05:34;;;;;;;97.65;46.28;;;;;;;25.94;74.54;97935.06;5046393;28;20045;-66
2022/04/10 02:08:23;;;;;;;97.82;46.10;;;;;;;26.12;76.62;97941.03;5047320;28;20052;-66
2022/04/10 02:11:22;;;;;;;106.57;47.47;;;;;;;26.22;74.96;97941.72;5065789;28;20052;-65
2022/04/10 02:14:07;;;;;;;94.25;47.13;;;;;;;26.50;75.34;97938.81;5049049;28;20058;-65
2022/04/10 02:16:56;;;;;;;97.18;46.42;;;;;;;26.84;69.76;97936.81;5050891;28;20047;-66
2022/04/10 02:19:51;;;;;;;79.75;44.17;;;;;;;27.26;63.91;97941.91;5046998;28;20781;-66
2022/04/10 02:22:26;;;;;;;94.05;48.00;;;;;;;27.54;66.15;97937.03;5054000;28;20045;-66
2022/04/10 02:25:15;;;;;;;100.45;48.78;;;;;;;27.69;62.11;97945.13;5046881;28;20099;-66
2022/04/10 02:28:04;;;;;;;93.43;46.38;;;;;;;27.95;61.62;97939.50;5066858;28;20044;-66
2022/04/10 02:30:46;;;;;;;101.85;45.13;;;;;;;28.39;66.07;97940.59;5043947;28;20113;-67
2022/04/10 02:33:35;;;;;;;93.88;44.78;;;;;;;28.64;61.25;97946.53;5061511;28;20048;-67
2022/04/10 02:36:19;;;;;;;87.20;42.85;;;;;;;28.72;56.61;97950.94;5062730;28;20055;-66
2022/04/10 02:39:08;;;;;;;83.70;41.35;;;;;;;28.82;57.85;97946.25;5066830;28;20129;-66
2022/04/10 02:41:51;;;;;;;81.72;38.78;;;;;;;29.17;53.97;97945.56;5052667;28;20064;-66
2022/04/10 02:44:40;;;;;;;72.78;37.33;;;;;;;29.19;56.06;97948.06;5044644;28;20053;-67
2022/04/10 02:47:22;;;;;;;71.55;37.40;;;;;;;29.19;54.25;97954.19;5046992;28;20584;-66
2022/04/10 02:50:17;;;;;;;73.88;38.53;;;;;;;29.25;55.33;97947.31;5046638;28;20059;-66
2022/04/10 02:52:54;;;;;;;84.10;36.13;;;;;;;29.33;57.72;97960.50;5044524;28;20068;-67
2022/04/10 02:55:43;;;;;;;72.70;37.50;;;;;;;29.38;56.26;97957.31;5028859;28;20176;-67
2022/04/10 02:58:32;;;;;;;72.78;36.40;;;;;;;29.46;53.37;97967.84;5042718;28;20040;-67
2022/04/10 03:01:21;;;;;;;67.15;36.97;;;;;;;29.54;52.95;97973.91;5068873;28;20796;-67
2022/04/10 03:04:10;;;;;;;75.00;35.75;;;;;;;29.65;51.50;97977.94;5054931;28;20126;-67
2022/04/10 03:06:52;;;;;;;68.95;34.85;;;;;;;29.75;57.45;97986.47;5036837;28;20098;-67
2022/04/10 03:09:41;;;;;;;78.75;36.65;;;;;;;29.62;48.97;97986.25;5054744;28;20059;-67
2022/04/10 03:12:35;;;;;;;63.78;33.88;;;;;;;29.72;50.90;97988.66;5049657;28;20117;-66
2022/04/10 03:15:11;;;;;;;54.83;31.95;;;;;;;29.75;51.80;97989.13;5065513;28;20307;-66
2022/04/10 03:18:01;;;;;;;52.33;30.92;;;;;;;29.82;50.85;97990.03;5028473;28;20076;-66
2022/04/10 03:20:43;;;;;;;55.53;32.22;;;;;;;29.87;52.64;97995.59;5048562;28;20500;-66
2022/04/10 03:23:33;;;;;;;61.45;30.10;;;;;;;29.90;55.25;97995.22;5057688;28;20049;-66
2022/04/10 03:26:22;;;;;;;56.08;29.13;;;;;;;29.94;49.57;97993.88;5045489;28;20111;-67
2022/04/10 03:29:05;;;;;;;54.20;29.85;;;;;;;29.99;52.81;97999.47;5028441;28;20055;-65
2022/04/10 03:31:55;;;;;;;46.50;28.02;;;;;;;30.07;50.10;97998.53;5047324;28;20476;-65
2022/04/10 03:34:37;;;;;;;49.60;27.58;;;;;;;30.24;49.71;97996.50;5059327;28;20059;-66
2022/04/10 03:37:26;;;;;;;48.85;26.23;;;;;;;30.35;42.49;98009.28;5054404;28;20056;-66
2022/04/10 03:40:16;;;;;;;53.22;26.35;;;;;;;30.47;42.60;98010.44;5039582;28;20067;-69
2022/04/10 03:43:06;;;;;;;50.00;27.33;;;;;;;30.64;43.44;98019.03;5016422;28;20466;-67
2022/04/10 03:45:48;;;;;;;59.57;28.57;;;;;;;30.74;46.52;98020.34;5026572;28;20087;-68
2022/04/10 03:48:43;;;;;;;50.58;27.45;;;;;;;30.85;44.74;98023.53;5044265;28;20510;-67
2022/04/10 03:51:31;;;;;;;68.65;27.85;;;;;;;30.91;45.76;98017.44;5026902;28;20049;-66
2022/04/10 03:54:19;;;;;;;55.45;27.67;;;;;;;30.97;46.33;98024.69;5045052;28;20051;-68
2022/04/10 03:57:01;;;;;;;58.85;28.02;;;;;;;31.12;50.99;98022.78;5009264;28;20053;-68
2022/04/10 03:59:50;;;;;;;55.63;29.25;;;;;;;31.21;50.35;98021.63;5027311;28;20040;-67
2022/04/10 04:02:33;;;;;;;79.13;37.60;;;;;;;31.41;44.75;98022.59;5005529;28;20569;-67
2022/04/10 04:05:29;;;;;;;79.65;40.15;;;;;;;31.74;39.13;98022.84;5007568;28;20041;-67
2022/04/10 04:08:26;;;;;;;86.38;43.45;;;;;;;32.06;46.46;98025.88;5007755;28;20042;-66
2022/04/10 04:11:01;;;;;;;76.13;39.20;;;;;;;32.25;45.32;98025.97;5022557;28;20090;-66
2022/04/10 04:13:50;;;;;;;71.15;39.53;;;;;;;32.45;44.00;98039.38;5006542;28;20613;-67
2022/04/10 04:16:38;;;;;;;76.35;37.22;;;;;;;32.74;40.87;98040.91;5021275;28;20048;-68
2022/04/10 04:19:21;;;;;;;70.82;36.10;;;;;;;33.12;43.44;98037.69;5005424;28;20471;-68
2022/04/10 04:22:10;;;;;;;74.35;37.03;;;;;;;33.70;40.47;98047.50;5010270;28;20038;-68
2022/04/10 04:24:52;;;;;;;73.70;33.22;;;;;;;33.98;41.57;98051.81;5001633;28;20033;-67
2022/04/10 04:27:41;;;;;;;45.60;24.50;;;;;;;34.22;33.39;98051.09;5004930;28;20136;-67
2022/04/10 04:30:25;;;;;;;50.47;23.60;;;;;;;34.47;30.97;98054.72;5000148;28;20141;-66
2022/04/10 04:33:16;;;;;;;41.60;21.38;;;;;;;34.39;30.36;98057.66;5004342;28;20049;-66
2022/04/10 04:35:58;;;;;;;39.78;21.33;;;;;;;35.24;31.61;98059.00;5003347;28;20068;-66
2022/04/10 04:38:48;;;;;;;39.45;19.85;;;;;;;35.81;30.98;98059.75;5005467;28;20567;-67
2022/04/10 04:41:31;;;;;;;41.35;21.73;;;;;;;35.77;30.83;98063.91;4996388;28;20061;-66
2022/04/10 04:44:20;;;;;;;45.60;20.73;;;;;;;35.98;38.16;98057.31;5005235;28;20296;-66
2022/04/10 04:47:02;;;;;;;39.43;20.00;;;;;;;36.39;37.61;98051.28;5022386;28;20042;-66
2022/04/10 04:49:51;;;;;;;41.63;19.77;;;;;;;36.32;33.44;98053.22;5037877;28;20052;-66
2022/04/10 04:52:43;;;;;;;37.83;18.88;;;;;;;36.46;30.13;98056.56;5040667;28;20377;-67
2022/04/10 04:55:25;;;;;;;37.65;18.52;;;;;;;36.73;32.47;98050.59;5052014;28;20588;-68
2022/04/10 04:58:21;;;;;;;46.50;19.58;;;;;;;36.93;30.27;98054.88;5043432;28;20063;-68
2022/04/10 05:00:59;;;;;;;43.25;21.48;;;;;;;37.02;34.80;98048.94;5042445;28;20083;-68
2022/04/10 05:03:56;;;;;;;47.80;23.52;;;;;;;36.97;33.18;98056.03;5035216;28;20485;-68
2022/04/10 05:06:31;;;;;;;54.72;25.65;;;;;;;37.04;33.33;98052.19;5039699;28;20334;-68
2022/04/10 05:09:21;;;;;;;42.88;23.90;;;;;;;37.00;33.85;98047.53;5061332;28;20183;-68
2022/04/10 05:12:02;;;;;;;40.75;21.90;;;;;;;37.15;34.13;98053.31;5045501;28;20102;-68
2022/04/10 05:14:52;;;;;;;55.72;22.67;;;;;;;37.54;27.69;98055.34;5020529;28;20702;-66
2022/04/10 05:17:43;;;;;;;45.67;21.15;;;;;;;37.66;26.80;98047.31;5042451;28;20044;-68
2022/04/10 05:20:32;;;;;;;39.33;22.08;;;;;;;37.82;30.40;98059.22;5045064;28;20044;-67
2022/04/10 05:23:26;;;;;;;42.33;18.77;;;;;;;37.55;29.90;98056.16;5049191;28;20095;-67
2022/04/10 05:26:20;;;;;;;34.28;17.63;;;;;;;37.73;31.59;98055.25;5055121;28;20109;-67
2022/04/10 05:29:04;;;;;;;37.25;18.40;;;;;;;37.90;32.71;98046.22;5051100;28;20411;-67
2022/04/10 05:31:53;;;;;;;35.67;18.88;;;;;;;38.10;34.01;98050.41;5047758;28;20044;-68
2022/04/10 05:34:35;;;;;;;41.97;18.13;;;;;;;38.10;30.50;98045.84;5047393;28;20050;-66
2022/04/10 05:37:27;;;;;;;33.85;17.08;;;;;;;38.09;28.45;98038.81;5046552;28;20064;-68
2022/04/10 05:40:17;;;;;;;33.70;18.20;;;;;;;38.14;30.10;98041.66;5040345;28;20380;-65
2022/04/10 05:43:02;;;;;;;34.75;17.15;;;;;;;38.06;31.98;98038.50;5051662;28;20128;-65
2022/04/10 05:45:51;;;;;;;40.40;17.67;;;;;;;38.27;32.40;98035.97;5066115;28;20049;-64
2022/04/10 05:48:40;;;;;;;35.28;15.80;;;;;;;38.48;34.55;98028.28;5054580;28;20040;-65
2022/04/10 05:51:31;;;;;;;41.35;18.42;;;;;;;37.89;29.85;98038.38;5063378;28;20068;-65
2022/04/10 05:54:21;;;;;;;40.85;16.92;;;;;;;38.04;30.09;98025.25;5064031;28;20056;-66
2022/04/10 05:57:05;;;;;;;41.58;18.83;;;;;;;38.10;37.18;98018.94;5049535;28;20056;-65
2022/04/10 05:59:55;;;;;;;39.78;19.85;;;;;;;37.65;35.90;98017.94;5053056;28;20048;-66
2022/04/10 06:02:48;;;;;;;39.25;20.15;;;;;;;37.76;30.59;98022.47;5058829;28;20053;-67
2022/04/10 06:05:30;;;;;;;47.78;18.00;;;;;;;37.99;29.05;98017.09;5059836;28;20474;-66
2022/04/10 06:08:26;;;;;;;30.27;16.75;;;;;;;37.86;31.70;98014.63;5045956;28;20060;-66
2022/04/10 06:11:08;;;;;;;41.10;17.95;;;;;;;37.10;27.59;98010.19;5059828;28;20049;-65
2022/04/10 06:13:57;;;;;;;32.85;16.80;;;;;;;37.90;28.61;98010.44;5064823;28;20481;-66
2022/04/10 06:16:39;;;;;;;37.22;18.85;;;;;;;38.14;35.81;98003.16;5039074;28;20040;-66
2022/04/10 06:19:32;;;;;;;31.58;14.88;;;;;;;37.79;32.11;98006.69;5042115;28;20073;-67
2022/04/10 06:22:26;;;;;;;30.80;15.10;;;;;;;37.75;30.76;98007.44;5037026;28;20125;-66
2022/04/10 06:25:10;;;;;;;37.38;14.93;;;;;;;37.74;33.05;97997.72;5044433;28;20052;-65
2022/04/10 06:27:59;;;;;;;33.05;13.93;;;;;;;37.70;35.57;97991.16;5041884;28;21399;-67
2022/04/10 06:30:53;;;;;;;35.85;14.90;;;;;;;37.80;34.03;97996.75;5035300;28;20045;-67
2022/04/10 06:33:39;;;;;;;27.70;14.88;;;;;;;37.78;33.49;97993.47;5040662;28;20060;-67
2022/04/10 06:36:29;;;;;;;33.45;15.15;;;;;;;37.57;29.84;97994.91;5052589;28;20659;-67
2022/04/10 06:39:19;;;;;;;33.60;15.40;;;;;;;37.69;32.62;97993.03;5039060;28;20044;-67
2022/04/10 06:42:08;;;;;;;40.10;14.85;;;;;;;37.62;30.97;97988.84;5042152;28;20056;-68
2022/04/10 06:45:18;;;;;;;27.23;15.57;;;;;;;37.80;33.17;97986.00;5046878;28;20136;-67
2022/04/10 06:48:15;;;;;;;32.58;15.60;;;;;;;37.69;32.31;97973.38;5045458;28;20068;-66
2022/04/10 06:51:12;;;;;;;30.55;14.40;;;;;;;37.50;29.04;97970.81;5052376;28;20399;-67
2022/04/10 06:54:03;;;;;;;34.78;14.45;;;;;;;37.59;36.27;97965.09;5064560;28;20185;-68
2022/04/10 06:56:45;;;;;;;25.30;14.55;;;;;;;37.53;34.84;97956.06;5063533;28;20884;-66
2022/04/10 06:59:34;;;;;;;31.23;15.23;;;;;;;37.38;33.91;97956.56;5043405;28;20052;-67
2022/04/10 07:02:24;;;;;;;34.72;17.95;;;;;;;37.56;31.35;97952.94;5048800;28;20357;-67
2022/04/10 07:05:06;;;;;;;33.72;16.27;;;;;;;37.61;29.70;97957.63;5056087;28;20059;-65
2022/04/10 07:08:00;;;;;;;23.25;12.40;;;;;;;37.50;29.78;97954.69;5050915;28;20114;-65
2022/04/10 07:10:49;;;;;;;30.90;12.25;;;;;;;37.61;31.03;97950.38;5069603;28;20045;-66
2022/04/10 07:13:33;;;;;;;25.65;11.52;;;;;;;37.75;30.96;97951.75;5040051;28;20068;-65
2022/04/10 07:16:22;;;;;;;39.58;14.15;;;;;;;37.74;28.75;97944.75;5043131;28;20102;-63
2022/04/10 07:19:11;;;;;;;28.77;12.40;;;;;;;37.81;28.04;97933.84;5065767;28;20080;-66
2022/04/10 07:25:01;;;;;;;24.33;13.02;;;;;;;37.90;30.88;97938.63;5050382;28;20143;-64
2022/04/10 07:27:45;;;;;;;27.25;12.05;;;;;;;37.80;28.71;97932.19;5050739;28;20144;-62
2022/04/10 07:30:45;;;;;;;16.63;11.45;;;;;;;37.85;28.02;97919.66;5044685;28;20052;-64
2022/04/10 07:33:27;;;;;;;30.83;11.55;;;;;;;37.89;30.62;97911.94;5048315;28;20036;-64
2022/04/10 07:36:31;;;;;;;32.40;10.55;;;;;;;37.81;28.69;97918.53;5052321;28;20064;-64
2022/04/10 07:39:12;;;;;;;27.95;11.90;;;;;;;37.77;26.86;97911.97;5048436;28;20040;-66
2022/04/10 07:42:12;;;;;;;22.63;11.48;;;;;;;37.84;29.11;97906.44;5049796;28;20048;-66
2022/04/10 07:48:49;;;;;;;23.38;11.18;;;;;;;37.92;28.00;97892.63;5054655;28;20048;-64
2022/04/10 07:51:46;;;;;;;38.78;11.90;;;;;;;37.74;27.35;97899.03;5048725;28;20733;-66
2022/04/10 07:54:58;;;;;;;25.73;12.95;;;;;;;37.78;28.85;97891.28;5044507;28;20049;-63
2022/04/10 07:57:52;;;;;;;27.27;12.18;;;;;;;37.80;28.64;97878.41;5059800;28;20048;-66
2022/04/10 08:00:34;;;;;;;24.05;13.02;;;;;;;37.80;28.73;97879.22;5044100;28;20553;-62
2022/04/10 08:03:24;;;;;;;30.40;12.15;;;;;;;37.76;31.05;97883.44;5055879;28;20062;-65
2022/04/10 08:06:31;;;;;;;33.95;13.15;;;;;;;37.67;29.88;97863.38;5056314;28;20107;-67
2022/04/10 08:09:13;;;;;;;29.85;14.10;;;;;;;37.68;30.04;97870.38;5031823;28;20139;-65
2022/04/10 08:12:02;;;;;;;27.95;14.07;;;;;;;37.60;28.54;97872.66;5052365;28;21004;-66
2022/04/10 08:14:51;;;;;;;32.97;12.88;;;;;;;37.53;30.20;97870.84;5060436;28;20108;-65
2022/04/10 08:17:33;;;;;;;34.22;13.93;;;;;;;37.36;28.98;97864.59;5052322;28;20138;-66
2022/04/10 08:20:30;;;;;;;32.67;13.77;;;;;;;37.35;32.47;97851.41;5048199;28;20130;-63
2022/04/10 08:23:06;;;;;;;26.75;13.70;;;;;;;37.28;32.18;97851.50;5034117;28;20048;-64
2022/04/10 08:25:54;;;;;;;;;;;;;;;37.22;31.19;97844.41;5053906;28;20052;-64
2022/04/10 08:28:36;;;;;;;27.13;11.50;;;;;;;37.23;28.95;97850.59;5053257;28;20454;-65
2022/04/10 08:31:26;;;;;;;33.40;11.60;;;;;;;37.30;29.38;97841.34;5037472;28;20048;-63
2022/04/10 08:34:15;;;;;;;28.60;11.93;;;;;;;37.32;28.69;97839.25;5038213;28;20044;-66
2022/04/10 08:37:02;;;;;;;26.92;11.98;;;;;;;37.22;30.80;97839.03;5056209;28;20048;-66
2022/04/10 08:39:51;;;;;;;33.65;12.80;;;;;;;37.17;28.96;97830.88;5037030;28;20607;-65
2022/04/10 08:42:33;;;;;;;32.13;11.60;;;;;;;37.17;29.58;97823.63;5058884;28;20044;-65
2022/04/10 08:45:29;;;;;;;28.23;12.23;;;;;;;37.15;30.83;97824.91;5045949;28;20063;-66
2022/04/10 08:48:19;;;;;;;25.08;10.43;;;;;;;37.07;29.00;97819.88;5045964;28;20079;-62
2022/04/10 08:51:14;;;;;;;21.40;10.07;;;;;;;37.01;30.00;97810.06;5039135;28;20662;-64
2022/04/10 08:54:10;;;;;;;35.20;10.23;;;;;;;36.99;30.32;97817.53;5038069;28;20119;-66
2022/04/10 08:56:45;;;;;;;20.40;9.43;;;;;;;36.95;29.87;97803.78;5040411;28;20045;-62
2022/04/10 08:59:34;;;;;;;26.40;8.05;;;;;;;37.01;27.11;97800.16;5039066;28;20048;-66
2022/04/10 09:02:24;;;;;;;26.83;8.27;;;;;;;37.10;27.01;97792.53;5042386;28;20064;-67
2022/04/10 09:05:06;;;;;;;24.25;8.20;;;;;;;37.05;26.95;97793.22;5043068;28;20048;-66
2022/04/10 09:08:18;;;;;;;21.75;7.63;;;;;;;37.02;27.90;97787.53;5039777;28;20488;-65
2022/04/10 09:11:09;;;;;;;26.52;7.38;;;;;;;37.07;26.64;97784.94;5037159;28;20099;-65
2022/04/10 09:13:53;;;;;;;20.52;7.97;;;;;;;37.01;28.05;97783.22;5029419;28;20110;-66
2022/04/10 09:16:49;;;;;;;19.05;7.25;;;;;;;36.93;26.84;97780.88;5036094;28;20055;-68
2022/04/10 09:19:36;;;;;;;26.05;8.07;;;;;;;36.93;28.28;97773.66;5033888;28;20060;-65
2022/04/10 09:22:39;;;;;;;18.08;6.88;;;;;;;36.78;29.31;97765.28;5011186;28;20841;-66
2022/04/10 09:25:34;;;;;;;18.02;6.95;;;;;;;36.63;29.12;97763.03;5033459;28;20049;-66
2022/04/10 09:28:09;;;;;;;16.10;6.82;;;;;;;36.58;30.31;97760.22;5018390;28;20045;-66
2022/04/10 09:30:58;;;;;;;16.73;6.55;;;;;;;36.56;29.26;97759.63;5040308;28;20061;-66
2022/04/10 09:33:55;;;;;;;20.77;6.22;;;;;;;36.46;29.79;97747.88;5041646;28;20083;-68
2022/04/10 09:36:42;;;;;;;15.57;5.40;;;;;;;36.51;25.79;97756.84;5039386;28;20059;-66
2022/04/10 09:39:44;;;;;;;12.88;5.63;;;;;;;36.41;29.53;97741.31;5042263;28;20055;-65
2022/04/10 09:42:33;;;;;;;14.40;5.38;;;;;;;36.36;28.24;97743.91;5040071;28;20140;-65
2022/04/10 09:45:40;;;;;;;18.08;5.72;;;;;;;36.14;27.96;97733.97;5043438;28;20055;-65
2022/04/10 09:48:31;;;;;;;12.85;5.32;;;;;;;36.11;28.36;97732.53;5038601;28;20044;-65
2022/04/10 09:51:13;;;;;;;17.05;6.72;;;;;;;35.93;28.49;97729.94;5038406;28;20049;-66
2022/04/10 09:54:04;;;;;;;18.23;6.28;;;;;;;36.01;26.98;97730.44;5041530;28;20045;-73
2022/04/10 09:56:53;;;;;;;23.43;6.60;;;;;;;36.20;26.16;97727.69;4642602;28;10000188;-66
2022/04/10 09:59:43;;;;;;;23.05;6.75;;;;;;;36.10;28.44;97728.22;5037417;28;20403;-65
2022/04/10 10:02:32;;;;;;;22.55;6.63;;;;;;;35.99;28.99;97721.81;5037874;28;20045;-65
2022/04/10 10:05:21;;;;;;;19.27;6.80;;;;;;;36.02;28.58;97713.28;5039143;28;20353;-65
2022/04/10 10:08:04;;;;;;;20.27;6.32;;;;;;;36.00;25.14;97712.69;5043746;28;20718;-68
2022/04/10 10:10:53;;;;;;;17.42;6.38;;;;;;;36.07;25.68;97714.47;4696079;28;10000049;-67
2022/04/10 10:13:36;;;;;;;15.60;6.18;;;;;;;36.22;24.64;97710.31;5027211;28;20757;-70
2022/04/10 10:16:25;;;;;;;28.65;5.95;;;;;;;36.15;26.74;97711.44;5040561;28;20044;-65
2022/04/10 10:19:08;;;;;;;15.30;6.65;;;;;;;36.22;28.65;97704.13;5041081;28;20052;-68
2022/04/10 10:22:04;;;;;;;19.65;6.88;;;;;;;36.13;26.78;97700.13;5031550;28;20466;-68
2022/04/10 10:24:57;;;;;;;17.35;6.43;;;;;;;36.00;28.24;97691.25;5037897;28;20067;-64
2022/04/10 10:28:04;;;;;;;22.30;7.13;;;;;;;35.88;29.89;97703.00;5035047;28;20099;-65
2022/04/10 10:31:13;;;;;;;27.83;8.75;;;;;;;35.79;29.34;97699.84;5031705;28;20060;-67
2022/04/10 10:34:08;;;;;;;15.98;7.63;;;;;;;35.62;31.48;97691.63;5031055;28;20049;-66
2022/04/10 10:36:51;;;;;;;12.10;6.32;;;;;;;35.67;29.50;97699.00;5037020;28;20049;-66
2022/04/10 10:39:50;;;;;;;14.82;6.15;;;;;;;35.58;31.44;97692.34;5028101;28;20049;-67
2022/04/10 10:42:32;;;;;;;14.63;6.38;;;;;;;35.43;30.72;97694.63;5033777;28;20124;-67
2022/04/10 10:45:43;;;;;;;18.35;6.30;;;;;;;35.62;26.39;97694.31;5033985;28;20365;-66
2022/04/10 10:48:44;;;;;;;;;;;;;;;35.48;30.01;97692.88;5033733;28;20091;-68
2022/04/10 10:51:42;;;;;;;12.80;6.07;;;;;;;35.23;32.75;97685.00;5064898;28;20027;-67
2022/04/10 10:54:32;;;;;;;16.10;5.68;;;;;;;35.39;29.69;97682.72;5047420;28;20059;-66
2022/04/10 10:57:33;;;;;;;18.27;6.57;;;;;;;35.29;27.74;97684.06;5059803;28;20048;-67
2022/04/10 11:00:22;;;;;;;17.17;5.95;;;;;;;35.30;27.90;97682.22;5057555;28;20431;-67
2022/04/10 11:03:05;;;;;;;20.83;7.03;;;;;;;35.08;28.46;97681.06;5059563;28;20076;-66
2022/04/10 11:06:07;;;;;;;16.67;6.25;;;;;;;35.03;30.27;97678.25;5045265;28;20041;-66
2022/04/10 11:08:56;;;;;;;19.52;6.10;;;;;;;34.99;28.69;97672.53;5053971;28;20127;-65
2022/04/10 11:11:39;;;;;;;20.90;6.50;;;;;;;34.91;33.50;97662.94;5078764;28;20080;-66
2022/04/10 11:14:51;;;;;;;13.20;6.72;;;;;;;34.72;32.72;97672.00;5072929;28;20040;-64
2022/04/10 11:17:33;;;;;;;17.33;6.97;;;;;;;34.63;33.75;97672.53;5071022;28;20067;-65
2022/04/10 11:20:27;;;;;;;24.55;7.00;;;;;;;34.59;34.05;97666.81;5064651;28;20395;-65
2022/04/10 11:23:16;;;;;;;31.00;7.20;;;;;;;34.59;31.88;97672.16;4708635;28;10000682;-66
2022/04/10 11:26:08;;;;;;;16.67;6.90;;;;;;;34.58;31.94;97669.69;5062349;28;20780;-66
2022/04/10 11:29:08;;;;;;;19.70;7.35;;;;;;;34.59;31.94;97671.34;5062620;28;20117;-69
2022/04/10 11:32:00;;;;;;;15.98;7.07;;;;;;;34.54;29.66;97672.84;5069009;28;20048;-65
2022/04/10 11:35:00;;;;;;;19.90;7.07;;;;;;;34.43;31.36;97662.03;5054337;28;20060;-66
2022/04/10 11:37:51;;;;;;;21.17;6.60;;;;;;;34.34;31.68;97658.03;5076263;28;20051;-67
2022/04/10 11:40:35;;;;;;;24.98;6.88;;;;;;;34.47;28.74;97665.94;5070113;28;20047;-64
2022/04/10 11:43:26;;;;;;;21.80;6.43;;;;;;;34.31;32.08;97658.50;5070751;28;20040;-69
2022/04/10 11:46:09;;;;;;;20.23;6.15;;;;;;;34.16;33.52;97656.94;5054724;28;20145;-65
2022/04/10 11:49:01;;;;;;;14.85;6.40;;;;;;;34.15;32.59;97649.97;5075945;28;20048;-67
2022/04/10 11:51:55;;;;;;;17.60;6.72;;;;;;;34.07;31.70;97660.13;5043331;28;20580;-66
2022/04/10 11:54:39;;;;;;;16.10;6.68;;;;;;;33.99;31.39;97655.06;5059427;28;20063;-67
2022/04/10 11:57:28;;;;;;;15.95;6.85;;;;;;;34.03;30.22;97659.75;5041531;28;20049;-67
2022/04/10 12:00:13;;;;;;;19.85;6.30;;;;;;;34.06;29.62;97658.50;5041745;28;20653;-68
2022/04/10 12:03:02;;;;;;;19.58;6.13;;;;;;;33.97;31.38;97651.78;5046465;28;20043;-68
2022/04/10 12:05:50;;;;;;;23.00;6.93;;;;;;;33.94;32.05;97658.38;5047380;28;20149;-68
2022/04/10 12:08:39;;;;;;;20.75;6.32;;;;;;;33.91;30.93;97664.19;5039347;28;20053;-67
2022/04/10 12:11:21;;;;;;;19.05;7.20;;;;;;;33.85;32.46;97658.88;5038611;28;20049;-67
2022/04/10 12:14:24;;;;;;;16.80;7.30;;;;;;;33.83;31.06;97655.63;5042365;28;20163;-67
2022/04/10 12:16:59;;;;;;;24.48;7.50;;;;;;;33.79;31.79;97655.25;5053551;28;20451;-67
2022/04/10 12:19:54;;;;;;;21.67;7.68;;;;;;;33.74;32.34;97652.41;5043071;28;20041;-68
2022/04/10 12:22:43;;;;;;;21.98;6.65;;;;;;;33.61;31.60;97649.78;5028378;28;20772;-66
2022/04/10 12:25:25;;;;;;;20.42;8.10;;;;;;;33.62;30.78;97656.78;5030632;28;20053;-67
2022/04/10 12:28:14;;;;;;;26.55;6.88;;;;;;;33.62;31.22;97654.09;5043839;28;20804;-66
2022/04/10 12:31:00;;;;;;;24.00;7.20;;;;;;;33.52;33.47;97654.63;5052649;28;20040;-64
2022/04/10 12:33:49;;;;;;;20.30;8.63;;;;;;;33.40;34.12;97651.00;5039805;28;20116;-67
2022/04/10 12:36:31;;;;;;;32.20;7.55;;;;;;;33.26;32.26;97652.13;5062150;28;20044;-67
2022/04/10 12:39:30;;;;;;;24.00;7.97;;;;;;;33.16;34.24;97652.56;5043496;28;20110;-66
2022/04/10 12:42:25;;;;;;;28.15;7.88;;;;;;;33.03;36.39;97649.97;5051352;28;20476;-66
2022/04/10 12:45:03;;;;;;;29.33;7.88;;;;;;;32.90;36.46;97653.50;5047419;28;20071;-67
2022/04/10 12:47:54;;;;;;;29.40;7.65;;;;;;;32.73;39.05;97655.00;5025266;28;20055;-67
2022/04/10 12:50:36;;;;;;;18.95;7.60;;;;;;;32.59;40.13;97664.06;5060612;28;20044;-67
2022/04/10 12:53:33;;;;;;;23.65;8.45;;;;;;;32.40;41.20;97654.31;5049718;28;20627;-66
2022/04/10 12:56:21;;;;;;;26.00;8.20;;;;;;;32.21;40.55;97656.81;5070766;28;20144;-66
2022/04/10 12:59:16;;;;;;;27.65;8.90;;;;;;;32.07;41.74;97657.81;5059823;28;20071;-64
2022/04/10 13:01:52;;;;;;;28.27;8.35;;;;;;;31.93;43.78;97650.84;5066454;28;20048;-65
2022/04/10 13:04:41;;;;;;;26.85;8.50;;;;;;;31.81;47.25;97649.84;5068425;28;20045;-65
2022/04/10 13:07:23;;;;;;;28.80;9.27;;;;;;;31.67;46.79;97658.88;5059199;28;20041;-65